Time;durP1;ratioP1;P1;durP2;ratioP2;P2;SDS_P1;SDS_P2;PMS_P1;PMS_P2;Temp;Humidity;BMP_temperature;BMP_pressure;BME280_temperature;BME280_humidity;BME280_pressure;Samples;Min_cycle;Max_cycle;Signal;HPM_P1;HPM_P2
2022/10/17 00:01:16;;;;;;;17.90;7.60;;;;;;;13.21;57.74;100050.41;103217;1304;97883;-80
2022/10/17 00:03:49;;;;;;;17.30;7.80;;;;;;;13.17;57.93;100048.20;103134;1302;112520;-79
2022/10/17 00:06:16;;;;;;;16.60;7.30;;;;;;;13.12;57.63;100047.98;103128;1297;97895;-79
2022/10/17 00:08:44;;;;;;;18.20;7.90;;;;;;;13.06;57.83;100050.02;103155;1298;108961;-79
2022/10/17 00:11:21;;;;;;;16.10;7.00;;;;;;;13.02;58.10;100054.78;103171;1302;98001;-79
2022/10/17 00:13:54;;;;;;;17.50;8.10;;;;;;;12.98;58.04;100055.38;103034;1307;97871;-81
2022/10/17 00:16:32;;;;;;;16.70;7.30;;;;;;;12.97;58.11;100055.44;103075;1303;110781;-79
2022/10/17 00:19:00;;;;;;;17.40;7.40;;;;;;;12.97;58.18;100056.34;103070;1294;97868;-78
2022/10/17 00:21:30;;;;;;;17.20;7.10;;;;;;;12.97;58.19;100059.51;103023;1296;107729;-78
2022/10/17 00:24:01;;;;;;;16.40;6.90;;;;;;;12.98;58.21;100065.36;103066;1303;97124;-78
2022/10/17 00:26:32;;;;;;;18.20;7.30;;;;;;;12.98;58.27;100071.36;103053;1296;97958;-78
2022/10/17 00:28:59;;;;;;;18.80;7.30;;;;;;;12.99;58.38;100072.73;103097;1303;111214;-79
2022/10/17 00:31:32;;;;;;;22.20;9.50;;;;;;;12.98;58.27;100066.05;103055;1299;97850;-78
2022/10/17 00:34:01;;;;;;;18.40;7.60;;;;;;;12.97;58.38;100066.64;102888;1299;107699;-78
2022/10/17 00:36:29;;;;;;;19.40;8.30;;;;;;;12.98;58.39;100064.83;103116;1311;98331;-79
2022/10/17 00:39:00;;;;;;;18.40;7.70;;;;;;;12.97;58.46;100065.03;103102;1304;95144;-80
2022/10/17 00:41:31;;;;;;;17.30;7.90;;;;;;;12.98;58.48;100065.71;103078;1304;111258;-78
2022/10/17 00:44:28;;;;;;;17.60;8.20;;;;;;;12.98;58.46;100063.71;103131;1303;95590;-79
2022/10/17 00:47:03;;;;;;;18.40;7.60;;;;;;;12.98;58.71;100063.38;103096;1300;107769;-83
2022/10/17 00:49:38;;;;;;;17.20;7.40;;;;;;;12.98;58.65;100062.81;102979;1304;95514;-79
2022/10/17 00:52:19;;;;;;;16.00;7.20;;;;;;;12.99;58.72;100064.77;103015;1305;97962;-79
2022/10/17 00:54:57;;;;;;;16.70;7.50;;;;;;;12.99;58.64;100069.54;103053;1300;110912;-79
2022/10/17 00:57:30;;;;;;;19.20;7.50;;;;;;;12.99;58.73;100068.27;103012;1304;96649;-80
2022/10/17 01:00:03;;;;;;;19.20;7.80;;;;;;;12.99;58.74;100070.60;103127;1302;107522;-78
2022/10/17 01:02:31;;;;;;;17.70;7.50;;;;;;;12.98;58.76;100068.73;102878;1299;97870;-79
2022/10/17 01:05:05;;;;;;;19.30;8.20;;;;;;;12.97;58.81;100069.84;103030;1296;97959;-78
2022/10/17 01:07:39;;;;;;;17.10;7.60;;;;;;;12.95;58.83;100072.98;103061;1296;111128;-80
2022/10/17 01:10:09;;;;;;;18.80;7.70;;;;;;;12.93;58.82;100069.89;103048;1302;96240;-79
2022/10/17 01:12:43;;;;;;;21.80;8.70;;;;;;;12.93;59.00;100071.36;103073;1298;107106;-79
2022/10/17 01:15:26;;;;;;;17.00;7.40;;;;;;;12.93;59.15;100071.70;103183;1302;95287;-79
2022/10/17 01:18:25;;;;;;;18.80;8.00;;;;;;;12.92;58.96;100068.40;103150;1296;97893;-77
2022/10/17 01:21:24;;;;;;;20.00;8.10;;;;;;;12.90;59.06;100069.41;103112;1303;111058;-78
2022/10/17 01:24:13;;;;;;;19.60;7.80;;;;;;;12.89;59.14;100067.67;103128;1303;97976;-78
2022/10/17 01:26:59;;;;;;;19.90;7.80;;;;;;;12.89;59.14;100067.19;103129;1304;106626;-79
2022/10/17 01:29:42;;;;;;;19.70;7.30;;;;;;;12.87;59.13;100065.32;103125;1297;98586;-78
2022/10/17 01:32:40;;;;;;;20.30;7.30;;;;;;;12.85;59.22;100071.15;103176;1302;97891;-79
2022/10/17 01:35:13;;;;;;;19.30;7.40;;;;;;;12.84;59.34;100074.65;103032;1303;111312;-78
2022/10/17 01:38:10;;;;;;;15.80;7.70;;;;;;;12.82;59.20;100077.08;103088;1305;97847;-78
2022/10/17 01:40:48;;;;;;;17.20;7.60;;;;;;;12.80;59.34;100080.90;103085;1302;107429;-77
2022/10/17 01:43:35;;;;;;;17.50;7.90;;;;;;;12.79;59.44;100081.88;103057;1304;95177;-78
2022/10/17 01:46:19;;;;;;;18.10;7.90;;;;;;;12.77;59.36;100083.60;103084;1304;97901;-77
2022/10/17 01:48:46;;;;;;;17.70;7.40;;;;;;;12.76;59.38;100086.14;103100;1303;111166;-79
2022/10/17 01:51:24;;;;;;;18.90;8.10;;;;;;;12.75;59.54;100085.50;103159;1297;97923;-78
2022/10/17 01:54:05;;;;;;;23.50;8.50;;;;;;;12.74;59.58;100080.09;103026;1296;109116;-78
2022/10/17 01:56:37;;;;;;;19.40;8.10;;;;;;;12.72;59.49;100078.25;102882;1305;97926;-80
2022/10/17 01:59:30;;;;;;;17.70;7.90;;;;;;;12.71;59.59;100072.79;103049;1300;98317;-79
2022/10/17 02:02:00;;;;;;;18.30;8.10;;;;;;;12.70;59.57;100072.52;102988;1309;111184;-79
2022/10/17 02:04:28;;;;;;;15.60;7.90;;;;;;;12.69;59.59;100076.48;103116;1303;97866;-78
2022/10/17 02:07:14;;;;;;;21.40;7.80;;;;;;;12.68;59.59;100077.23;102960;1303;107481;-78
2022/10/17 02:09:46;;;;;;;20.00;8.20;;;;;;;12.68;59.71;100078.34;103045;1303;97915;-79
2022/10/17 02:12:39;;;;;;;17.30;7.70;;;;;;;12.67;59.79;100082.14;103111;1296;97885;-80
2022/10/17 02:15:10;;;;;;;19.10;7.80;;;;;;;12.64;59.84;100091.02;103024;1298;111204;-79
2022/10/17 02:18:13;;;;;;;19.30;7.50;;;;;;;12.64;59.90;100092.97;103090;1300;97870;-80
2022/10/17 02:21:02;;;;;;;17.70;7.30;;;;;;;12.63;59.91;100094.84;103027;1303;106617;-80
2022/10/17 02:24:08;;;;;;;18.40;8.00;;;;;;;12.61;59.85;100095.84;103017;1306;97859;-80
2022/10/17 02:26:59;;;;;;;16.30;8.20;;;;;;;12.58;59.90;100099.77;102791;1305;97897;-82
2022/10/17 02:29:52;;;;;;;22.70;8.50;;;;;;;12.56;59.93;100102.78;103054;1299;111171;-80
2022/10/17 02:32:50;;;;;;;18.70;7.40;;;;;;;12.54;59.98;100106.42;103219;1303;96567;-79
2022/10/17 02:35:24;;;;;;;19.00;7.90;;;;;;;12.54;60.01;100113.95;103138;1297;107429;-78
2022/10/17 02:38:02;;;;;;;16.30;7.60;;;;;;;12.52;59.96;100115.45;103112;1303;97899;-77
2022/10/17 02:40:33;;;;;;;19.50;7.50;;;;;;;12.51;60.03;100119.96;103125;1298;98591;-79
2022/10/17 02:43:00;;;;;;;18.10;8.00;;;;;;;12.50;59.90;100118.79;103152;1297;111587;-79
2022/10/17 02:45:35;;;;;;;17.60;7.90;;;;;;;12.48;60.04;100120.84;103104;1303;97884;-79
2022/10/17 02:48:37;;;;;;;22.90;8.50;;;;;;;12.48;60.06;100121.20;103023;1298;107450;-78
2022/10/17 02:51:37;;;;;;;16.30;7.90;;;;;;;12.47;60.36;100123.04;103106;1303;97869;-79
2022/10/17 02:54:30;;;;;;;17.70;8.00;;;;;;;12.47;60.29;100120.20;103052;1306;98034;-79
2022/10/17 02:57:16;;;;;;;17.40;8.00;;;;;;;12.48;60.41;100112.54;103041;1302;110374;-79
2022/10/17 02:59:49;;;;;;;20.40;8.10;;;;;;;12.47;60.37;100110.06;103146;1306;97922;-79
2022/10/17 03:02:17;;;;;;;;;;;;;;;12.47;60.28;100115.25;103086;1304;107481;-80
2022/10/17 03:04:50;;;;;;;18.80;8.20;;;;;;;12.44;60.51;100119.02;103043;1301;98101;-80
2022/10/17 03:07:18;;;;;;;18.70;8.20;;;;;;;12.44;60.38;100116.86;103129;1298;97996;-80
2022/10/17 03:09:50;;;;;;;18.90;8.30;;;;;;;12.43;60.50;100116.95;103065;1309;110817;-79
2022/10/17 03:12:18;;;;;;;17.90;8.10;;;;;;;12.42;60.62;100117.35;103042;1302;98903;-79
2022/10/17 03:14:46;;;;;;;17.70;7.90;;;;;;;12.41;60.47;100118.84;103048;1303;106208;-80
2022/10/17 03:17:13;;;;;;;22.10;8.50;;;;;;;12.41;60.49;100122.77;103018;1303;95837;-80
2022/10/17 03:19:41;;;;;;;18.20;7.90;;;;;;;12.41;60.56;100118.67;102990;1301;97905;-78
2022/10/17 03:22:09;;;;;;;19.50;8.50;;;;;;;12.41;60.57;100122.02;102974;1307;111313;-79
2022/10/17 03:24:36;;;;;;;17.00;7.60;;;;;;;12.41;60.54;100119.00;103099;1304;97903;-79
2022/10/17 03:27:04;;;;;;;19.90;8.50;;;;;;;12.42;60.62;100119.86;103061;1297;107554;-79
2022/10/17 03:29:32;;;;;;;17.50;8.20;;;;;;;12.41;60.64;100124.52;103090;1288;98000;-80
2022/10/17 03:32:00;;;;;;;16.90;7.60;;;;;;;12.41;60.57;100127.20;103103;1303;97902;-81
2022/10/17 03:34:28;;;;;;;15.90;7.70;;;;;;;12.41;60.64;100129.69;102902;1304;111693;-80
2022/10/17 03:36:56;;;;;;;19.00;8.80;;;;;;;12.41;60.68;100127.19;103088;1299;97984;-80
2022/10/17 03:39:25;;;;;;;18.50;8.10;;;;;;;12.40;60.87;100134.20;102987;1290;107155;-79
2022/10/17 03:41:53;;;;;;;19.60;8.80;;;;;;;12.40;60.69;100137.26;102988;1297;97956;-79
2022/10/17 03:44:20;;;;;;;17.40;8.40;;;;;;;12.38;60.87;100136.65;103009;1305;97890;-82
2022/10/17 03:46:48;;;;;;;19.60;9.00;;;;;;;12.38;60.81;100135.77;103004;1296;111124;-81
2022/10/17 03:49:16;;;;;;;18.30;8.10;;;;;;;12.38;60.89;100138.44;103084;1290;97851;-81
2022/10/17 03:51:44;;;;;;;17.30;7.90;;;;;;;12.36;60.76;100139.61;102991;1299;107508;-75
2022/10/17 03:54:12;;;;;;;18.50;8.40;;;;;;;12.34;60.89;100141.13;103042;1298;97925;-78
2022/10/17 03:56:40;;;;;;;19.10;7.80;;;;;;;12.33;60.83;100146.20;103033;1299;97883;-78
2022/10/17 03:59:13;;;;;;;19.70;7.80;;;;;;;12.32;60.95;100149.45;103036;1298;111575;-77
2022/10/17 04:01:41;;;;;;;17.40;8.20;;;;;;;12.31;61.07;100147.52;102989;1306;95265;-78
2022/10/17 04:04:09;;;;;;;19.30;7.80;;;;;;;12.32;61.02;100147.70;102975;1289;107505;-78
2022/10/17 04:06:38;;;;;;;16.20;8.00;;;;;;;12.31;61.22;100146.46;102984;1296;96012;-78
2022/10/17 04:09:06;;;;;;;19.20;8.70;;;;;;;12.32;61.14;100148.23;103066;1295;97891;-79
2022/10/17 04:11:34;;;;;;;19.50;8.60;;;;;;;12.31;61.03;100146.49;102843;1307;111177;-79
2022/10/17 04:14:02;;;;;;;18.80;8.50;;;;;;;12.28;61.00;100154.83;102926;1301;95334;-78
2022/10/17 04:16:29;;;;;;;17.80;8.40;;;;;;;12.25;61.05;100152.73;102983;1305;107197;-78
2022/10/17 04:18:59;;;;;;;20.60;8.60;;;;;;;12.23;61.10;100155.20;102987;1307;98411;-78
2022/10/17 04:21:28;;;;;;;19.90;9.20;;;;;;;12.20;61.10;100157.30;103012;1299;98015;-78
2022/10/17 04:23:59;;;;;;;21.40;8.80;;;;;;;12.19;61.26;100158.46;103095;1302;110024;-77
2022/10/17 04:26:27;;;;;;;19.80;8.60;;;;;;;12.17;61.34;100162.10;103107;1286;97900;-76
2022/10/17 04:28:55;;;;;;;20.70;9.70;;;;;;;12.16;61.30;100165.89;103074;1298;107355;-78
2022/10/17 04:31:24;;;;;;;17.30;8.50;;;;;;;12.15;61.39;100167.20;103093;1297;97892;-78
2022/10/17 04:33:51;;;;;;;18.80;9.00;;;;;;;12.14;61.26;100164.45;103069;1298;97840;-78
2022/10/17 04:36:21;;;;;;;17.00;8.40;;;;;;;12.10;61.27;100162.89;103037;1304;111225;-78
2022/10/17 04:38:50;;;;;;;19.40;9.10;;;;;;;12.05;61.27;100162.66;103042;1296;97956;-77
2022/10/17 04:41:18;;;;;;;22.30;9.10;;;;;;;12.01;61.35;100165.20;103069;1296;107500;-79
2022/10/17 04:43:46;;;;;;;22.10;10.10;;;;;;;11.97;61.50;100167.39;102957;1306;138370;-81
2022/10/17 04:46:18;;;;;;;21.10;9.70;;;;;;;11.94;61.31;100166.88;102986;1302;98046;-80
2022/10/17 04:48:45;;;;;;;19.40;9.40;;;;;;;11.90;61.51;100167.61;103097;1305;110852;-80
2022/10/17 04:51:17;;;;;;;19.60;9.20;;;;;;;11.89;61.50;100165.73;103132;1303;98362;-80
2022/10/17 04:53:50;;;;;;;21.80;10.10;;;;;;;11.88;61.50;100169.86;102974;1302;107167;-79
2022/10/17 04:56:20;;;;;;;19.60;8.90;;;;;;;11.88;61.46;100172.57;103098;1303;97941;-80
2022/10/17 04:58:48;;;;;;;20.10;8.60;;;;;;;11.86;61.56;100170.69;103029;1303;97968;-81
2022/10/17 05:01:19;;;;;;;21.70;9.00;;;;;;;11.87;61.54;100173.12;103037;1303;111112;-81
2022/10/17 05:03:47;;;;;;;19.00;8.90;;;;;;;11.87;61.66;100176.36;103048;1297;97920;-80
2022/10/17 05:06:27;;;;;;;21.10;9.50;;;;;;;11.85;61.77;100184.29;102989;1297;107540;-80
2022/10/17 05:08:57;;;;;;;19.50;8.90;;;;;;;11.84;61.88;100187.69;103110;1298;96067;-80
2022/10/17 05:11:27;;;;;;;20.90;9.00;;;;;;;11.85;61.95;100190.33;103099;1303;97867;-81
2022/10/17 05:13:58;;;;;;;19.60;9.40;;;;;;;11.85;61.97;100196.68;103216;1297;110822;-81
2022/10/17 05:16:29;;;;;;;19.70;9.10;;;;;;;11.86;61.94;100200.55;103131;1302;98011;-81
2022/10/17 05:18:58;;;;;;;19.40;8.90;;;;;;;11.87;61.94;100200.66;103160;1303;107539;-80
2022/10/17 05:21:29;;;;;;;26.80;9.10;;;;;;;11.88;61.98;100203.29;102999;1304;97924;-79
2022/10/17 05:23:58;;;;;;;19.00;9.10;;;;;;;11.89;62.05;100206.07;103015;1300;97986;-81
2022/10/17 05:26:26;;;;;;;19.50;9.20;;;;;;;11.89;62.09;100210.86;102992;1302;111406;-79
2022/10/17 05:28:53;;;;;;;21.50;8.60;;;;;;;11.90;62.14;100215.61;103078;1301;97849;-81
2022/10/17 05:31:21;;;;;;;20.20;9.10;;;;;;;11.91;62.13;100216.23;103026;1302;107448;-81
2022/10/17 05:33:49;;;;;;;19.80;9.30;;;;;;;11.94;62.19;100221.80;103048;1299;97900;-81
2022/10/17 05:36:17;;;;;;;21.90;9.40;;;;;;;11.95;62.17;100224.39;103127;1297;95333;-81
2022/10/17 05:38:50;;;;;;;20.10;9.30;;;;;;;11.96;62.17;100226.27;103093;1298;110304;-82
2022/10/17 05:41:19;;;;;;;20.60;9.00;;;;;;;11.99;62.31;100233.42;102984;1299;97999;-81
2022/10/17 05:43:49;;;;;;;19.80;9.40;;;;;;;12.00;62.31;100236.04;103086;1303;107470;-80
2022/10/17 05:46:17;;;;;;;25.00;9.90;;;;;;;12.01;62.28;100235.27;103045;1301;97866;-82
2022/10/17 05:48:47;;;;;;;23.00;9.80;;;;;;;12.01;62.28;100235.61;103098;1297;97919;-80
2022/10/17 05:51:14;;;;;;;20.70;9.60;;;;;;;12.02;62.53;100235.92;103063;1303;110775;-79
2022/10/17 05:53:42;;;;;;;20.90;9.80;;;;;;;12.03;62.44;100240.98;103049;1303;96977;-80
2022/10/17 05:56:13;;;;;;;21.20;8.70;;;;;;;12.07;62.53;100248.25;103021;1304;107466;-80
2022/10/17 05:58:44;;;;;;;21.30;10.10;;;;;;;12.09;62.46;100246.53;103047;1297;97882;-81
2022/10/17 06:01:20;;;;;;;21.30;9.70;;;;;;;12.12;62.52;100245.81;103076;1304;97901;-82
2022/10/17 06:03:48;;;;;;;21.20;8.90;;;;;;;12.16;62.58;100250.55;103071;1302;111161;-80
2022/10/17 06:06:17;;;;;;;22.50;9.90;;;;;;;12.20;62.61;100254.02;102992;1300;97899;-80
2022/10/17 06:08:45;;;;;;;18.60;9.50;;;;;;;12.25;62.64;100256.08;103111;1290;107176;-80
2022/10/17 06:11:13;;;;;;;22.20;10.20;;;;;;;12.29;62.54;100258.46;103088;1306;97998;-81
2022/10/17 06:13:41;;;;;;;26.30;12.10;;;;;;;12.33;62.56;100261.06;103115;1298;95236;-80
2022/10/17 06:16:09;;;;;;;27.90;10.70;;;;;;;12.38;62.63;100266.64;103089;1297;111141;-82
2022/10/17 06:18:36;;;;;;;29.30;11.10;;;;;;;12.43;62.69;100267.94;103055;1298;97924;-82
2022/10/17 06:21:08;;;;;;;27.00;10.90;;;;;;;12.48;62.79;100269.59;103077;1297;107503;-82
2022/10/17 06:23:37;;;;;;;24.90;10.30;;;;;;;12.54;62.77;100274.58;102886;1300;97874;-80
2022/10/17 06:26:06;;;;;;;20.70;9.40;;;;;;;12.59;62.85;100275.33;103005;1301;98000;-79
2022/10/17 06:28:35;;;;;;;21.90;9.20;;;;;;;12.65;62.84;100278.84;103061;1300;111152;-80
2022/10/17 06:31:06;;;;;;;22.30;9.90;;;;;;;12.72;62.85;100278.83;103050;1303;97935;-80
2022/10/17 06:33:35;;;;;;;22.70;9.00;;;;;;;12.78;62.95;100279.52;103035;1296;107449;-81
2022/10/17 06:36:06;;;;;;;18.00;9.10;;;;;;;12.84;62.88;100276.14;102918;1304;96197;-80
2022/10/17 06:38:34;;;;;;;23.80;8.70;;;;;;;12.90;62.84;100278.91;103090;1296;97888;-80
2022/10/17 06:41:09;;;;;;;21.00;9.30;;;;;;;12.96;62.95;100278.02;103044;1304;110731;-79
2022/10/17 06:43:39;;;;;;;18.90;8.30;;;;;;;13.02;62.94;100278.73;103101;1294;97887;-81
2022/10/17 06:46:09;;;;;;;24.00;9.40;;;;;;;13.09;63.03;100277.04;103039;1299;106593;-81
2022/10/17 06:48:37;;;;;;;21.30;9.00;;;;;;;13.15;63.09;100272.05;103132;1304;98007;-81
2022/10/17 06:51:08;;;;;;;20.20;8.10;;;;;;;13.21;63.05;100275.38;103130;1303;99517;-80
2022/10/17 06:53:39;;;;;;;17.20;8.00;;;;;;;13.27;62.99;100281.59;103093;1302;111176;-79
2022/10/17 06:56:09;;;;;;;20.60;7.90;;;;;;;13.33;63.00;100286.73;103105;1298;97977;-82
2022/10/17 06:58:40;;;;;;;19.70;8.60;;;;;;;13.38;63.00;100286.02;103133;1296;107521;-80
2022/10/17 07:01:11;;;;;;;17.70;8.70;;;;;;;13.45;63.03;100292.06;103083;1302;97898;-81
2022/10/17 07:03:40;;;;;;;19.40;9.10;;;;;;;13.52;62.93;100298.50;103108;1307;97902;-82
2022/10/17 07:06:10;;;;;;;20.20;8.30;;;;;;;13.60;63.13;100297.85;103026;1303;111221;-82
2022/10/17 07:08:43;;;;;;;21.70;8.50;;;;;;;13.67;63.09;100299.31;103051;1302;97036;-83
2022/10/17 07:11:12;;;;;;;;;;;;;;;13.76;63.14;100303.95;103077;1304;107444;-84
2022/10/17 07:13:42;;;;;;;20.30;8.80;;;;;;;13.81;63.12;100303.26;103124;1306;98050;-80
2022/10/17 07:16:11;;;;;;;21.40;8.70;;;;;;;13.90;63.03;100305.71;102981;1299;96683;-80
2022/10/17 07:18:39;;;;;;;21.50;8.40;;;;;;;13.96;63.04;100303.66;103126;1298;110666;-81
2022/10/17 07:21:09;;;;;;;18.60;7.80;;;;;;;14.04;63.00;100306.95;103054;1297;97012;-79
2022/10/17 07:23:38;;;;;;;17.80;7.90;;;;;;;14.10;63.02;100305.96;103043;1297;108932;-80
2022/10/17 07:26:12;;;;;;;16.50;7.50;;;;;;;14.18;63.01;100307.22;103112;1303;97981;-79
2022/10/17 07:28:43;;;;;;;17.50;7.20;;;;;;;14.23;63.01;100304.36;103088;1297;98104;-79
2022/10/17 07:31:17;;;;;;;19.70;8.70;;;;;;;14.30;62.95;100308.92;103079;1303;111162;-83
2022/10/17 07:33:47;;;;;;;18.30;8.20;;;;;;;14.36;62.98;100307.73;103122;1304;98001;-82
2022/10/17 07:36:16;;;;;;;20.30;7.50;;;;;;;14.44;62.98;100307.23;103204;1304;107469;-81
2022/10/17 07:38:44;;;;;;;20.30;8.00;;;;;;;14.52;62.93;100304.20;103041;1297;97899;-81
2022/10/17 07:41:12;;;;;;;19.40;8.20;;;;;;;14.59;62.89;100307.25;102957;1306;98656;-80
2022/10/17 07:43:47;;;;;;;17.70;7.40;;;;;;;14.67;62.87;100311.17;103138;1295;110287;-79
2022/10/17 07:46:15;;;;;;;18.00;8.20;;;;;;;14.75;62.92;100319.38;103156;1303;95236;-79
2022/10/17 07:48:43;;;;;;;20.90;8.20;;;;;;;14.84;62.96;100328.25;103014;1298;107534;-79
2022/10/17 07:51:11;;;;;;;18.40;7.90;;;;;;;14.91;62.84;100334.15;102996;1304;97825;-80
2022/10/17 07:53:39;;;;;;;17.70;8.40;;;;;;;14.96;62.84;100331.13;103122;1298;95190;-80
2022/10/17 07:56:12;;;;;;;21.30;8.20;;;;;;;15.01;62.73;100331.70;103106;1299;111136;-81
2022/10/17 07:58:43;;;;;;;17.90;8.20;;;;;;;15.05;62.67;100329.77;103127;1302;97936;-80
2022/10/17 08:01:13;;;;;;;25.50;9.10;;;;;;;15.12;62.75;100328.77;103032;1296;107485;-81
2022/10/17 08:03:49;;;;;;;19.70;8.20;;;;;;;15.18;62.55;100325.47;103031;1305;97847;-80
2022/10/17 08:06:17;;;;;;;17.00;7.60;;;;;;;15.24;62.62;100325.62;103117;1305;97997;-79
2022/10/17 08:08:45;;;;;;;19.20;8.20;;;;;;;15.29;62.60;100320.18;103049;1290;110797;-80
2022/10/17 08:11:15;;;;;;;22.00;9.20;;;;;;;15.38;62.72;100317.60;103061;1297;98648;-81
2022/10/17 08:13:43;;;;;;;16.90;8.10;;;;;;;15.46;62.64;100323.30;103141;1298;107510;-80
2022/10/17 08:16:12;;;;;;;20.90;8.10;;;;;;;15.54;62.61;100318.96;103051;1297;95251;-78
2022/10/17 08:18:42;;;;;;;18.20;7.50;;;;;;;15.61;62.66;100322.17;103139;1302;97920;-80
2022/10/17 08:21:13;;;;;;;19.90;7.80;;;;;;;15.70;62.66;100321.17;103092;1281;109980;-79
2022/10/17 08:23:41;;;;;;;16.50;7.30;;;;;;;15.80;62.64;100322.06;103128;1304;98090;-80
2022/10/17 08:26:15;;;;;;;22.80;9.80;;;;;;;15.91;62.54;100325.02;103137;1290;107650;-79
2022/10/17 08:28:43;;;;;;;24.50;9.20;;;;;;;16.03;62.51;100319.81;102978;1305;98036;-79
2022/10/17 08:31:17;;;;;;;18.70;8.00;;;;;;;16.19;62.58;100317.19;103116;1305;97884;-80
2022/10/17 08:33:48;;;;;;;23.20;7.90;;;;;;;16.48;62.66;100316.79;103133;1303;111244;-80
2022/10/17 08:36:19;;;;;;;17.00;7.40;;;;;;;16.82;62.51;100319.30;103184;1303;95814;-79
2022/10/17 08:38:47;;;;;;;18.10;7.40;;;;;;;17.21;62.47;100321.88;103055;1298;107204;-80
2022/10/17 08:41:59;;;;;;;16.00;7.20;;;;;;;17.61;62.60;100317.87;103051;1307;97908;-81
2022/10/17 08:44:42;;;;;;;19.20;7.80;;;;;;;18.14;62.44;100321.30;103039;1305;97889;-79
2022/10/17 08:47:15;;;;;;;19.70;8.50;;;;;;;18.56;62.20;100319.16;103046;1306;111212;-77
2022/10/17 08:49:54;;;;;;;21.40;9.60;;;;;;;18.90;61.88;100316.80;103073;1298;97903;-78
2022/10/17 08:52:38;;;;;;;22.70;8.50;;;;;;;19.22;61.78;100313.56;103037;1300;107552;-77
2022/10/17 08:55:20;;;;;;;16.00;6.80;;;;;;;19.52;61.13;100313.23;103153;1300;97868;-78
2022/10/17 08:57:48;;;;;;;18.30;6.60;;;;;;;19.71;61.29;100313.50;103110;1304;98212;-78
2022/10/17 09:00:19;;;;;;;17.90;8.10;;;;;;;19.98;61.40;100316.14;103108;1291;110980;-78
2022/10/17 09:03:09;;;;;;;19.70;8.30;;;;;;;20.30;61.32;100319.27;103145;1304;98002;-78
2022/10/17 09:05:58;;;;;;;16.00;7.20;;;;;;;20.72;61.38;100323.29;103117;1304;107518;-76
2022/10/17 09:08:52;;;;;;;18.60;6.90;;;;;;;21.17;61.19;100325.35;103082;1304;97993;-78
2022/10/17 09:11:51;;;;;;;18.70;6.60;;;;;;;21.56;60.86;100319.91;102964;1300;97973;-78
2022/10/17 09:14:45;;;;;;;17.20;7.20;;;;;;;21.90;60.66;100311.71;103137;1304;110853;-77
2022/10/17 09:17:41;;;;;;;15.50;6.40;;;;;;;22.22;60.32;100316.05;103130;1296;97989;-77
2022/10/17 09:20:17;;;;;;;18.00;7.30;;;;;;;22.58;59.91;100316.77;103037;1306;106744;-77
2022/10/17 09:23:13;;;;;;;22.30;7.60;;;;;;;22.89;59.68;100319.89;103088;1298;97861;-74
2022/10/17 09:25:44;;;;;;;17.30;6.90;;;;;;;23.21;59.62;100322.89;103079;1296;97903;-79
2022/10/17 09:28:23;;;;;;;21.00;7.30;;;;;;;23.45;59.58;100319.58;103126;1297;111185;-77
2022/10/17 09:31:02;;;;;;;17.00;6.60;;;;;;;23.58;59.67;100319.46;103126;1299;98458;-78
2022/10/17 09:33:42;;;;;;;15.00;6.70;;;;;;;23.63;59.27;100317.54;103101;1296;107432;-77
2022/10/17 09:36:39;;;;;;;15.60;6.40;;;;;;;23.70;58.99;100322.00;103047;1300;98012;-79
2022/10/17 09:39:18;;;;;;;16.80;7.00;;;;;;;23.69;58.92;100321.60;103131;1288;98078;-79
2022/10/17 09:41:54;;;;;;;16.80;6.50;;;;;;;23.47;57.78;100322.67;103135;1300;110866;-79
2022/10/17 09:44:31;;;;;;;15.60;7.10;;;;;;;23.25;57.01;100320.12;103116;1296;95839;-77
2022/10/17 09:47:22;;;;;;;15.80;7.20;;;;;;;22.96;57.10;100322.39;102957;1305;109265;-76
2022/10/17 09:49:52;;;;;;;15.00;7.20;;;;;;;22.67;54.85;100321.45;103099;1290;97903;-76
2022/10/17 09:52:35;;;;;;;18.50;7.20;;;;;;;22.35;55.36;100327.41;103091;1303;97898;-75
2022/10/17 09:55:17;;;;;;;15.60;7.20;;;;;;;22.19;55.29;100320.90;103090;1296;111128;-76
2022/10/17 09:57:59;;;;;;;17.60;6.40;;;;;;;22.10;55.35;100326.52;102918;1307;97773;-78
2022/10/17 10:00:32;;;;;;;23.10;6.90;;;;;;;22.05;55.34;100324.67;103139;1298;107451;-76
2022/10/17 10:03:14;;;;;;;16.50;6.60;;;;;;;22.02;55.18;100322.80;103112;1305;98680;-73
2022/10/17 10:06:01;;;;;;;14.20;6.50;;;;;;;22.07;55.24;100322.77;103165;1297;95329;-77
2022/10/17 10:08:36;;;;;;;17.70;6.90;;;;;;;22.15;55.01;100324.19;102904;1300;111241;-76
2022/10/17 10:11:08;;;;;;;15.50;6.20;;;;;;;22.24;54.81;100324.02;103055;1290;96336;-76
2022/10/17 10:13:42;;;;;;;17.40;7.30;;;;;;;22.36;54.93;100318.23;103024;1299;107457;-77
2022/10/17 10:16:32;;;;;;;17.50;6.80;;;;;;;22.40;53.60;100314.59;103030;1297;98014;-76
2022/10/17 10:19:00;;;;;;;17.60;7.00;;;;;;;22.32;53.58;100316.98;103065;1297;97953;-78
2022/10/17 10:21:32;;;;;;;20.00;8.10;;;;;;;22.32;53.94;100317.58;103057;1307;110862;-78
2022/10/17 10:24:14;;;;;;;20.40;7.70;;;;;;;22.32;53.24;100314.09;102986;1301;97914;-79
2022/10/17 10:26:47;;;;;;;16.10;7.50;;;;;;;22.21;52.81;100310.25;103132;1303;107554;-78
2022/10/17 10:29:34;;;;;;;18.30;8.20;;;;;;;22.25;53.54;100309.27;103108;1297;95550;-79
2022/10/17 10:32:18;;;;;;;30.60;11.50;;;;;;;22.43;53.69;100305.13;103100;1300;97871;-78
2022/10/17 10:34:51;;;;;;;20.90;8.60;;;;;;;22.59;53.61;100306.49;103092;1305;111308;-78
2022/10/17 10:37:24;;;;;;;15.20;6.90;;;;;;;22.66;52.55;100300.95;103159;1304;97959;-78
2022/10/17 10:39:57;;;;;;;17.70;7.90;;;;;;;22.64;52.10;100300.58;103138;1299;107220;-77
2022/10/17 10:42:37;;;;;;;19.60;7.30;;;;;;;22.59;52.63;100301.44;103113;1298;98639;-78
2022/10/17 10:45:35;;;;;;;21.00;9.40;;;;;;;22.67;52.65;100304.86;102986;1306;97969;-78
2022/10/17 10:48:35;;;;;;;16.60;7.80;;;;;;;22.78;52.62;100304.02;103100;1298;110769;-77
2022/10/17 10:51:08;;;;;;;20.30;8.00;;;;;;;22.80;51.74;100307.10;103105;1296;97870;-77
2022/10/17 10:54:25;;;;;;;19.70;8.00;;;;;;;22.81;51.92;100305.55;103090;1297;107473;-78
2022/10/17 10:56:58;;;;;;;17.90;7.80;;;;;;;22.92;51.45;100301.81;102591;1302;97982;-77
2022/10/17 10:59:49;;;;;;;19.40;7.50;;;;;;;22.90;51.13;100298.85;103085;1297;97903;-76
2022/10/17 11:02:44;;;;;;;24.50;8.60;;;;;;;22.78;51.32;100297.00;103112;1297;111182;-77
2022/10/17 11:05:21;;;;;;;19.10;8.00;;;;;;;22.82;51.47;100300.20;103052;1304;97888;-78
2022/10/17 11:08:10;;;;;;;20.60;7.70;;;;;;;22.84;51.03;100297.55;103090;1304;107574;-79
2022/10/17 11:11:07;;;;;;;19.80;8.40;;;;;;;22.88;51.04;100296.44;102993;1307;98029;-79
2022/10/17 11:13:46;;;;;;;19.30;8.00;;;;;;;22.83;50.67;100290.30;103171;1297;98484;-79
2022/10/17 11:17:01;;;;;;;20.30;7.70;;;;;;;22.84;50.67;100289.50;103148;1296;110823;-78
2022/10/17 11:20:00;;;;;;;16.90;7.60;;;;;;;22.92;50.92;100281.60;102792;1304;97995;-78
2022/10/17 11:22:36;;;;;;;16.60;6.80;;;;;;;23.02;50.77;100276.76;103100;1297;107895;-82
2022/10/17 11:25:30;;;;;;;17.30;6.50;;;;;;;23.15;50.85;100273.59;103106;1304;97909;-81
2022/10/17 11:28:00;;;;;;;18.20;7.30;;;;;;;23.29;50.69;100272.10;103039;1296;95217;-79
2022/10/17 11:30:45;;;;;;;18.90;7.10;;;;;;;23.35;50.48;100274.36;103036;1298;110701;-79
2022/10/17 11:33:48;;;;;;;19.50;7.50;;;;;;;23.32;50.37;100270.17;103048;1306;98045;-78
2022/10/17 11:36:19;;;;;;;20.00;7.80;;;;;;;23.32;50.22;100268.64;103004;1296;107735;-77
2022/10/17 11:38:54;;;;;;;18.40;8.00;;;;;;;23.32;49.38;100271.00;103035;1299;97896;-77
2022/10/17 11:41:34;;;;;;;21.00;7.70;;;;;;;23.34;49.78;100274.48;103141;1298;97976;-78
2022/10/17 11:44:26;;;;;;;17.90;7.40;;;;;;;23.36;49.73;100273.17;103028;1301;110768;-76